Time;durP1;ratioP1;P1;durP2;ratioP2;P2;SDS_P1;SDS_P2;PMS_P1;PMS_P2;Temp;Humidity;BMP_temperature;BMP_pressure;BME280_temperature;BME280_humidity;BME280_pressure;Samples;Min_cycle;Max_cycle;Signal;HPM_P1;HPM_P2
2022/12/02 00:02:06;;;;;;;;;65.50;54.25;;;;;5.65;77.02;102720.31;5064989;28;11550;-67
2022/12/02 00:04:34;;;;;;;;;72.50;57.50;;;;;5.65;77.91;102717.66;5070551;28;11547;-66
2022/12/02 00:07:05;;;;;;;;;63.25;49.50;;;;;5.68;77.82;102715.59;5067084;28;11613;-67
2022/12/02 00:09:34;;;;;;;;;47.50;43.75;;;;;5.69;77.37;102716.44;5064097;28;11554;-67
2022/12/02 00:12:19;;;;;;;;;69.00;51.00;;;;;5.69;76.52;102725.31;5066780;28;11565;-67
2022/12/02 00:14:46;;;;;;;;;69.50;51.25;;;;;5.68;76.61;102725.44;5057576;28;11601;-67
2022/12/02 00:17:12;;;;;;;;;63.75;51.00;;;;;5.68;76.62;102720.09;5064447;28;11697;-67
2022/12/02 00:19:39;;;;;;;;;69.75;53.00;;;;;5.55;76.23;102716.63;5064935;28;11557;-68
2022/12/02 00:22:05;;;;;;;;;64.00;51.75;;;;;5.49;76.81;102707.25;5066008;28;11710;-67
2022/12/02 00:24:32;;;;;;;;;75.50;55.25;;;;;5.48;76.95;102718.06;5069581;28;11550;-66
2022/12/02 00:26:58;;;;;;;;;68.50;54.25;;;;;5.48;75.63;102720.75;5071811;28;11592;-67
2022/12/02 00:29:27;;;;;;;;;68.25;54.50;;;;;5.44;76.25;102718.31;5064546;28;11021;-67
2022/12/02 00:31:54;;;;;;;;;69.00;52.75;;;;;5.49;76.08;102717.09;5061758;28;11651;-67
2022/12/02 00:34:21;;;;;;;;;64.25;54.00;;;;;5.52;76.55;102711.53;5071981;28;11661;-67
2022/12/02 00:36:47;;;;;;;;;58.50;46.25;;;;;5.55;76.38;102708.63;5066437;28;11568;-66
2022/12/02 00:39:15;;;;;;;;;71.50;54.50;;;;;5.49;75.07;102695.72;5069764;28;11604;-66
2022/12/02 00:41:42;;;;;;;;;72.25;53.75;;;;;5.47;76.12;102703.88;5068448;28;11549;-67
2022/12/02 00:46:55;;;;;;;;;72.50;54.25;;;;;5.51;75.62;102700.00;5060008;28;12281;-66
2022/12/02 00:49:23;;;;;;;;;64.25;52.25;;;;;5.51;75.62;102689.31;5061314;28;11569;-66
2022/12/02 00:51:49;;;;;;;;;67.25;48.00;;;;;5.59;75.44;102681.56;5058602;28;11578;-67
2022/12/02 00:54:16;;;;;;;;;62.25;49.75;;;;;5.56;75.11;102678.28;5063824;28;11595;-66
2022/12/02 00:56:43;;;;;;;;;72.25;52.75;;;;;5.54;75.62;102680.19;5061428;28;11535;-67
2022/12/02 00:59:10;;;;;;;;;68.25;54.25;;;;;5.50;75.91;102682.25;5067349;28;11587;-67
2022/12/02 01:01:36;;;;;;;;;59.75;49.00;;;;;5.51;74.71;102685.78;5069057;28;11602;-68
2022/12/02 01:04:04;;;;;;;;;78.50;51.75;;;;;5.38;74.12;102683.19;5066455;28;11757;-66
2022/12/02 01:06:30;;;;;;;;;63.50;48.50;;;;;5.26;74.53;102682.28;5061689;28;11702;-67
2022/12/02 01:08:57;;;;;;;;;65.50;46.25;;;;;5.27;75.61;102681.31;5066118;28;11554;-67
2022/12/02 01:11:23;;;;;;;;;67.50;53.75;;;;;5.27;75.43;102676.00;5064252;28;11556;-66
2022/12/02 01:13:50;;;;;;;;;57.75;50.25;;;;;5.34;76.11;102679.88;5063588;28;12323;-67
2022/12/02 01:16:16;;;;;;;;;53.75;42.00;;;;;5.42;76.07;102684.66;5067629;28;12280;-67
2022/12/02 01:18:43;;;;;;;;;56.00;45.00;;;;;5.44;75.95;102678.25;5074747;28;11541;-66
2022/12/02 01:21:09;;;;;;;;;57.25;45.50;;;;;5.53;75.72;102678.50;5060081;28;12456;-67
2022/12/02 01:23:36;;;;;;;;;58.25;46.75;;;;;5.58;76.18;102682.53;5068196;28;11617;-67
2022/12/02 01:26:02;;;;;;;;;62.25;46.00;;;;;5.63;75.38;102677.69;5067168;28;11579;-64
2022/12/02 01:28:32;;;;;;;;;62.00;46.00;;;;;5.63;75.30;102674.16;5063433;28;11559;-66
2022/12/02 01:30:59;;;;;;;;;63.00;49.25;;;;;5.60;75.09;102677.09;5063492;28;11549;-67
2022/12/02 01:33:26;;;;;;;;;65.00;48.50;;;;;5.63;74.88;102682.16;5060321;28;11588;-66
2022/12/02 01:35:52;;;;;;;;;64.25;48.50;;;;;5.57;74.22;102682.66;5063687;28;11531;-67
2022/12/02 01:38:19;;;;;;;;;66.25;51.50;;;;;5.54;75.59;102672.19;5070330;28;11657;-66
2022/12/02 01:40:45;;;;;;;;;61.50;51.75;;;;;5.49;74.90;102683.22;5069457;28;11579;-67
2022/12/02 01:43:12;;;;;;;;;67.25;52.50;;;;;5.41;75.48;102680.28;5070906;28;11553;-66
2022/12/02 01:45:39;;;;;;;;;61.25;44.75;;;;;5.44;76.16;102685.41;5067287;28;11714;-66
2022/12/02 01:48:05;;;;;;;;;68.50;51.50;;;;;5.46;75.39;102689.63;5069784;28;11596;-67
2022/12/02 01:50:32;;;;;;;;;70.75;48.25;;;;;5.48;75.58;102686.03;5073983;28;11578;-67
2022/12/02 01:52:59;;;;;;;;;65.75;50.25;;;;;5.53;75.58;102691.88;5066760;28;11655;-66
2022/12/02 01:55:27;;;;;;;;;55.50;45.25;;;;;5.58;75.62;102679.84;5069103;28;11592;-67
2022/12/02 01:57:56;;;;;;;;;69.00;47.75;;;;;5.61;75.38;102682.28;5079081;28;11556;-67
2022/12/02 02:00:23;;;;;;;;;60.50;45.75;;;;;5.61;74.73;102686.78;5060177;28;11646;-67
2022/12/02 02:02:49;;;;;;;;;67.75;49.75;;;;;5.56;75.35;102686.31;5076944;28;12233;-65
2022/12/02 02:05:21;;;;;;;;;74.00;49.25;;;;;5.54;75.14;102690.88;5073854;28;11572;-67
2022/12/02 02:07:52;;;;;;;;;70.50;51.25;;;;;5.45;75.41;102679.94;5079504;28;11544;-67
2022/12/02 02:10:21;;;;;;;;;64.25;50.50;;;;;5.42;74.90;102674.81;5060367;28;12367;-66
2022/12/02 02:12:50;;;;;;;;;49.25;44.00;;;;;5.50;75.74;102676.06;5068722;28;11557;-67
2022/12/02 02:15:18;;;;;;;;;63.00;45.00;;;;;5.57;75.78;102663.94;5078891;28;11614;-66
2022/12/02 02:17:45;;;;;;;;;47.50;42.75;;;;;5.61;75.44;102663.59;5069535;28;11598;-67
2022/12/02 02:20:18;;;;;;;;;49.75;43.25;;;;;5.57;74.38;102667.47;5066153;28;11635;-67
2022/12/02 02:23:03;;;;;;;;;66.50;49.50;;;;;5.49;75.34;102674.38;5064327;28;12360;-67
2022/12/02 02:25:32;;;;;;;;;72.00;53.25;;;;;5.45;75.58;102669.25;5062926;28;11595;-68
2022/12/02 02:28:00;;;;;;;;;69.75;50.25;;;;;5.46;76.47;102670.09;5067982;28;11791;-67
2022/12/02 02:30:32;;;;;;;;;58.50;50.25;;;;;5.52;76.16;102664.31;5068539;28;11641;-67
2022/12/02 02:33:01;;;;;;;;;59.50;47.50;;;;;5.56;76.16;102660.44;5072035;28;11561;-67
2022/12/02 02:35:28;;;;;;;;;66.50;49.75;;;;;5.65;75.46;102657.06;5064963;28;11607;-66
2022/12/02 02:37:56;;;;;;;;;55.50;48.25;;;;;5.57;75.63;102646.09;5070752;28;11587;-66
2022/12/02 02:40:25;;;;;;;;;66.00;52.00;;;;;5.55;75.61;102658.75;5076853;28;12285;-67
2022/12/02 02:42:57;;;;;;;;;67.00;52.50;;;;;5.49;74.52;102658.34;5074021;28;11546;-68
2022/12/02 02:45:27;;;;;;;;;61.25;50.00;;;;;5.42;75.36;102660.63;5074899;28;11604;-67
2022/12/02 02:47:54;;;;;;;;;62.75;48.00;;;;;5.27;74.59;102648.44;5063199;28;11674;-68
2022/12/02 02:50:22;;;;;;;;;48.75;43.00;;;;;5.21;75.18;102649.72;5065858;28;11610;-65
2022/12/02 02:52:50;;;;;;;;;59.50;44.50;;;;;5.17;75.74;102637.56;5064360;28;11610;-68
2022/12/02 02:55:20;;;;;;;;;38.50;34.75;;;;;5.20;76.13;102648.88;5066475;28;11580;-68
2022/12/02 02:57:48;;;;;;;;;63.25;46.25;;;;;5.23;74.90;102645.16;5070632;28;11559;-68
2022/12/02 03:00:17;;;;;;;;;51.00;41.00;;;;;5.15;75.19;102635.03;5070279;28;11574;-66
2022/12/02 03:02:48;;;;;;;;;49.50;42.00;;;;;5.15;75.26;102629.69;5074896;28;11568;-67
2022/12/02 03:05:17;;;;;;;;;48.75;42.00;;;;;5.16;75.61;102628.72;5064642;28;11723;-66
2022/12/02 03:07:44;;;;;;;;;41.00;33.75;;;;;5.21;75.33;102621.22;5064305;28;11560;-66
2022/12/02 03:10:12;;;;;;;;;48.75;33.50;;;;;5.23;74.79;102625.59;5067932;28;11533;-65
2022/12/02 03:12:38;;;;;;;;;42.25;38.75;;;;;5.05;74.34;102609.13;5080963;22;11599;-67
2022/12/02 03:15:06;;;;;;;;;48.25;38.50;;;;;4.97;73.97;102618.56;5069628;28;11571;-67
2022/12/02 03:17:33;;;;;;;;;44.00;40.75;;;;;4.92;74.76;102631.41;5072845;28;12324;-67
2022/12/02 03:19:59;;;;;;;;;37.00;32.75;;;;;4.97;75.72;102621.22;5070257;28;11680;-67
2022/12/02 03:22:26;;;;;;;;;44.00;38.25;;;;;5.05;75.13;102626.00;5048199;28;11590;-66
2022/12/02 03:24:52;;;;;;;;;48.00;42.25;;;;;5.02;74.99;102628.88;5049625;28;11647;-66
2022/12/02 03:27:19;;;;;;;;;49.00;40.00;;;;;4.97;74.55;102626.56;5051390;28;11647;-66
2022/12/02 03:29:46;;;;;;;;;44.75;41.25;;;;;4.85;75.16;102619.47;5051310;28;11573;-66
2022/12/02 03:32:12;;;;;;;;;51.00;38.50;;;;;4.84;75.34;102616.94;5064786;28;11738;-66
2022/12/02 03:34:41;;;;;;;;;42.75;37.75;;;;;4.79;75.41;102622.59;5052118;28;11678;-67
2022/12/02 03:37:08;;;;;;;;;47.25;40.75;;;;;4.74;75.34;102618.56;5049311;28;11558;-66
2022/12/02 03:39:36;;;;;;;;;53.00;39.00;;;;;4.72;75.79;102619.53;5049225;28;11617;-67
2022/12/02 03:42:03;;;;;;;;;54.50;42.25;;;;;4.79;75.69;102627.09;5040979;28;11615;-66
2022/12/02 03:44:30;;;;;;;;;40.75;34.00;;;;;4.86;76.38;102623.88;5033101;28;11606;-67
2022/12/02 03:46:56;;;;;;;;;52.25;40.50;;;;;4.85;75.95;102631.97;5051152;28;11634;-66
2022/12/02 03:49:24;;;;;;;;;50.50;39.25;;;;;4.86;75.60;102629.19;5050854;28;11570;-66
2022/12/02 03:51:50;;;;;;;;;46.75;36.50;;;;;4.86;75.74;102620.31;5051078;28;11596;-66
2022/12/02 03:54:17;;;;;;;;;48.50;41.50;;;;;4.87;76.00;102614.03;5048612;28;11732;-67
2022/12/02 03:56:44;;;;;;;;;48.00;42.50;;;;;4.91;76.45;102621.69;5049714;28;11682;-66
2022/12/02 03:59:18;;;;;;;;;47.50;42.25;;;;;4.95;76.47;102617.84;5047302;28;12308;-66
2022/12/02 04:01:44;;;;;;;;;52.75;45.25;;;;;4.94;75.47;102623.25;5049277;28;11572;-66
2022/12/02 04:04:11;;;;;;;;;55.00;44.00;;;;;4.81;75.06;102612.66;5047146;28;11622;-66
2022/12/02 04:06:37;;;;;;;;;56.25;44.50;;;;;4.71;75.86;102615.16;5046797;28;11561;-66
2022/12/02 04:09:04;;;;;;;;;57.00;45.50;;;;;4.70;76.01;102601.94;5046715;28;11577;-66
2022/12/02 04:11:30;;;;;;;;;47.00;39.00;;;;;4.76;75.81;102619.31;5040249;28;11711;-66
2022/12/02 04:13:56;;;;;;;;;45.00;40.75;;;;;4.75;75.58;102609.59;5041823;28;11739;-66
2022/12/02 04:16:23;;;;;;;;;48.25;43.00;;;;;4.72;75.75;102594.66;5048963;28;11651;-66
2022/12/02 04:18:49;;;;;;;;;41.00;38.25;;;;;4.80;75.92;102599.44;5033606;28;12290;-67
2022/12/02 04:21:16;;;;;;;;;33.25;31.00;;;;;4.86;76.00;102593.63;5041838;28;11585;-67
2022/12/02 04:23:42;;;;;;;;;57.50;41.00;;;;;4.87;75.17;102588.19;5044204;28;11711;-66
2022/12/02 04:26:09;;;;;;;;;39.75;32.00;;;;;4.83;74.59;102600.06;5045122;28;11612;-66
2022/12/02 04:28:35;;;;;;;;;46.50;39.50;;;;;4.75;74.67;102594.44;5049828;28;11555;-66
2022/12/02 04:31:01;;;;;;;;;36.00;34.00;;;;;4.70;75.37;102583.28;5046280;28;11587;-67
2022/12/02 04:33:28;;;;;;;;;37.75;36.75;;;;;4.73;75.31;102580.34;5050645;28;12253;-66
2022/12/02 04:35:54;;;;;;;;;42.75;34.25;;;;;4.71;75.34;102576.97;5042262;28;11688;-66
2022/12/02 04:38:21;;;;;;;;;42.75;39.75;;;;;4.70;75.71;102576.13;5043258;28;11618;-66
2022/12/02 04:40:47;;;;;;;;;40.75;39.25;;;;;4.75;76.34;102574.94;5043685;28;11540;-67
2022/12/02 04:43:14;;;;;;;;;42.50;33.75;;;;;4.69;75.47;102574.41;5047401;28;11697;-67
2022/12/02 04:45:40;;;;;;;;;42.25;38.75;;;;;4.65;75.00;102578.25;5046489;28;11583;-66
2022/12/02 04:48:07;;;;;;;;;41.00;37.50;;;;;4.61;74.43;102578.59;5063873;28;11709;-66
2022/12/02 04:50:33;;;;;;;;;57.75;46.00;;;;;4.52;74.74;102582.78;5046872;28;11606;-66
2022/12/02 04:53:00;;;;;;;;;47.50;41.00;;;;;4.45;74.92;102581.53;5043634;28;11549;-66
2022/12/02 04:55:27;;;;;;;;;43.50;35.00;;;;;4.44;75.52;102583.34;5052278;28;11554;-66
2022/12/02 04:57:53;;;;;;;;;47.75;34.75;;;;;4.48;75.54;102575.97;5042256;28;11565;-66
2022/12/02 05:00:19;;;;;;;;;56.50;42.25;;;;;4.46;75.39;102573.44;5048529;28;11637;-66
2022/12/02 05:02:46;;;;;;;;;44.75;35.75;;;;;4.53;75.10;102575.63;5042670;28;11583;-66
2022/12/02 05:05:13;;;;;;;;;45.25;41.00;;;;;4.55;74.34;102576.41;5041172;28;11577;-66
2022/12/02 05:07:39;;;;;;;;;44.75;35.75;;;;;4.52;74.53;102577.47;5048411;28;11575;-67
2022/12/02 05:10:06;;;;;;;;;43.00;34.00;;;;;4.54;74.58;102569.34;5047520;28;11560;-66
2022/12/02 05:12:33;;;;;;;;;34.25;32.50;;;;;4.61;74.71;102570.59;5045991;28;11561;-66
2022/12/02 05:14:59;;;;;;;;;46.50;34.75;;;;;4.60;74.82;102566.22;5048098;28;12295;-66
2022/12/02 05:17:26;;;;;;;;;41.75;35.25;;;;;4.60;74.05;102568.91;5043369;28;11505;-67
2022/12/02 05:19:52;;;;;;;;;52.00;38.25;;;;;4.49;73.57;102563.50;5047184;28;11577;-66
2022/12/02 05:22:18;;;;;;;;;38.00;29.50;;;;;4.43;74.07;102557.66;5048463;28;11591;-66
2022/12/02 05:24:47;;;;;;;;;38.50;36.50;;;;;4.42;73.97;102561.28;5049947;28;11560;-66
2022/12/02 05:27:14;;;;;;;;;32.75;27.00;;;;;4.46;74.54;102567.25;5031313;28;11597;-66
2022/12/02 05:29:41;;;;;;;;;41.25;34.00;;;;;4.54;74.39;102554.22;5039766;28;12314;-66
2022/12/02 05:32:07;;;;;;;;;45.50;34.00;;;;;4.53;73.89;102557.81;5035063;28;11698;-66
2022/12/02 05:34:34;;;;;;;;;35.75;29.50;;;;;4.55;74.50;102555.91;5046890;28;11591;-66
2022/12/02 05:37:00;;;;;;;;;48.50;36.00;;;;;4.61;74.69;102559.94;5045979;28;11655;-67
2022/12/02 05:39:27;;;;;;;;;35.50;30.75;;;;;4.59;73.53;102561.88;5047092;28;11654;-66
2022/12/02 05:41:58;;;;;;;;;38.00;30.25;;;;;4.63;74.73;102558.00;5057278;28;11581;-66
2022/12/02 05:44:26;;;;;;;;;45.75;33.25;;;;;4.66;74.20;102553.31;5049121;28;11594;-68
2022/12/02 05:47:01;;;;;;;;;41.00;36.50;;;;;4.67;73.13;102568.34;5048457;28;11584;-67
2022/12/02 05:49:32;;;;;;;;;35.25;30.75;;;;;4.59;72.98;102560.06;5042151;28;11549;-67
2022/12/02 05:52:00;;;;;;;;;32.25;21.50;;;;;4.49;72.86;102563.50;5036277;28;11664;-67
2022/12/02 05:54:28;;;;;;;;;44.25;40.50;;;;;4.49;74.18;102569.66;5044436;28;11568;-67
2022/12/02 05:56:56;;;;;;;;;40.75;35.50;;;;;4.45;74.38;102562.84;5039425;28;11745;-67
2022/12/02 05:59:22;;;;;;;;;46.25;32.00;;;;;4.43;73.89;102565.66;5046382;28;12313;-67
2022/12/02 06:01:53;;;;;;;;;49.50;37.00;;;;;4.34;73.57;102569.00;5041123;28;12336;-68
2022/12/02 06:04:24;;;;;;;;;43.75;39.50;;;;;4.32;73.61;102568.25;5045423;28;11584;-67
2022/12/02 06:06:54;;;;;;;;;54.75;43.75;;;;;4.29;72.90;102568.44;5046687;28;12336;-67
2022/12/02 06:09:27;;;;;;;;;41.00;36.25;;;;;4.22;72.80;102572.53;5036272;28;11569;-67
2022/12/02 06:11:54;;;;;;;;;37.75;33.00;;;;;4.16;73.38;102567.63;5045914;28;11568;-66
2022/12/02 06:14:29;;;;;;;;;43.25;41.00;;;;;4.22;73.80;102572.53;5033472;28;11589;-66
2022/12/02 06:17:00;;;;;;;;;40.50;37.25;;;;;4.21;73.37;102577.03;5042224;28;11599;-65
2022/12/02 06:19:42;;;;;;;;;38.75;32.50;;;;;4.23;73.16;102571.56;5042532;28;11580;-66
2022/12/02 06:22:16;;;;;;;;;38.25;27.25;;;;;4.23;73.01;102574.25;5053429;28;11571;-67
2022/12/02 06:24:43;;;;;;;;;36.50;33.00;;;;;4.24;73.10;102577.75;5042056;28;11574;-67
2022/12/02 06:27:14;;;;;;;;;38.00;33.75;;;;;4.10;71.76;102573.44;5040353;28;11672;-66
2022/12/02 06:29:55;;;;;;;;;34.75;29.50;;;;;4.06;72.76;102571.94;5042683;28;12289;-67
2022/12/02 06:32:23;;;;;;;;;40.50;32.50;;;;;4.03;72.71;102573.00;5057033;28;11575;-67
2022/12/02 06:34:51;;;;;;;;;46.75;34.00;;;;;4.00;72.65;102581.19;5040533;28;11585;-66
2022/12/02 06:37:23;;;;;;;;;44.50;32.75;;;;;3.91;72.91;102581.84;5061948;28;11624;-66
2022/12/02 06:39:55;;;;;;;;;40.50;32.75;;;;;3.86;73.16;102579.53;5042699;28;11555;-64
2022/12/02 06:42:41;;;;;;;;;33.00;30.25;;;;;3.83;71.84;102573.56;5048241;28;11619;-66
2022/12/02 06:45:22;;;;;;;;;37.75;32.25;;;;;3.80;72.29;102581.75;5059854;28;11579;-66
2022/12/02 06:47:59;;;;;;;;;39.75;30.25;;;;;3.77;71.93;102574.84;5050031;28;11581;-66
2022/12/02 06:50:39;;;;;;;;;45.00;32.75;;;;;3.72;71.26;102577.81;5062693;28;11649;-66
2022/12/02 06:53:26;;;;;;;;;37.00;31.50;;;;;3.75;71.83;102587.41;5045962;28;11655;-66
2022/12/02 06:56:13;;;;;;;;;30.00;26.00;;;;;3.74;71.70;102591.03;5046832;28;12361;-66
2022/12/02 06:58:43;;;;;;;;;33.50;24.75;;;;;3.72;71.68;102592.94;5051463;28;11571;-67
2022/12/02 07:01:25;;;;;;;;;33.25;26.50;;;;;3.72;72.12;102592.94;5068413;28;11561;-66
2022/12/02 07:04:10;;;;;;;;;24.25;18.75;;;;;3.76;72.18;102588.25;5052599;28;12375;-67
2022/12/02 07:06:39;;;;;;;;;28.75;24.75;;;;;3.79;71.81;102588.91;5048080;28;13711;-67
2022/12/02 07:09:15;;;;;;;;;34.00;24.25;;;;;3.89;72.21;102594.41;5045995;28;11606;-67
2022/12/02 07:11:50;;;;;;;;;27.25;21.25;;;;;3.88;71.18;102598.91;5051960;28;11692;-67
2022/12/02 07:14:43;;;;;;;;;22.00;21.00;;;;;3.82;71.48;102596.69;5046056;28;12289;-67
2022/12/02 07:17:28;;;;;;;;;26.50;17.75;;;;;3.88;71.37;102601.56;5042845;28;11571;-67
2022/12/02 07:20:01;;;;;;;;;24.75;21.25;;;;;3.93;71.89;102602.13;5046967;28;11679;-67
2022/12/02 07:22:36;;;;;;;;;19.25;16.25;;;;;3.95;71.60;102610.00;5042679;28;11636;-67
2022/12/02 07:25:08;;;;;;;;;30.50;23.50;;;;;3.96;71.56;102601.03;5046064;28;11534;-67
2022/12/02 07:27:38;;;;;;;;;31.75;20.50;;;;;3.95;71.42;102605.50;5036017;28;11556;-67
2022/12/02 07:30:30;;;;;;;;;33.75;23.25;;;;;3.94;71.72;102602.97;5038165;28;11576;-66
2022/12/02 07:32:57;;;;;;;;;19.50;19.50;;;;;4.02;72.11;102605.09;5034984;28;11707;-67
2022/12/02 07:35:23;;;;;;;;;21.75;18.50;;;;;4.06;71.92;102607.44;5058963;28;11626;-66
2022/12/02 07:37:50;;;;;;;;;34.50;26.00;;;;;4.02;71.08;102605.09;5041815;28;12255;-67
2022/12/02 07:40:19;;;;;;;;;27.50;24.00;;;;;3.97;71.99;102600.09;5041769;28;11619;-67
2022/12/02 07:42:46;;;;;;;;;36.25;27.25;;;;;3.94;72.13;102602.97;5040242;28;11608;-67
2022/12/02 07:45:16;;;;;;;;;23.75;21.25;;;;;3.91;72.78;102606.69;5043140;28;11585;-67
2022/12/02 07:47:42;;;;;;;;;30.75;24.00;;;;;3.91;72.86;102606.69;5045945;28;11539;-66
2022/12/02 07:50:11;;;;;;;;;26.25;22.75;;;;;3.86;72.82;102608.81;5040937;28;11534;-66
2022/12/02 07:52:37;;;;;;;;;26.75;21.25;;;;;3.80;72.73;102614.56;5044785;28;11525;-66
2022/12/02 07:55:06;;;;;;;;;30.00;26.50;;;;;3.74;73.05;102606.16;5042369;28;11517;-67
2022/12/02 07:57:33;;;;;;;;;26.25;16.50;;;;;3.68;72.50;102594.13;5056046;28;11547;-66
2022/12/02 08:00:02;;;;;;;;;15.75;15.75;;;;;3.66;72.50;102601.38;5055239;28;11518;-66
2022/12/02 08:02:37;;;;;;;;;28.50;24.25;;;;;3.68;72.84;102604.75;5042427;28;11549;-66
2022/12/02 08:05:04;;;;;;;;;26.00;22.50;;;;;3.70;72.36;102601.03;5042534;28;11495;-66
2022/12/02 08:07:31;;;;;;;;;23.25;15.50;;;;;3.77;73.12;102609.47;5041121;28;11668;-66
2022/12/02 08:09:58;;;;;;;;;18.50;17.00;;;;;3.83;72.31;102597.53;5042044;28;11506;-67
2022/12/02 08:12:24;;;;;;;;;21.50;16.50;;;;;3.93;72.98;102599.44;5043715;28;12267;-67
2022/12/02 08:14:51;;;;;;;;;23.50;19.75;;;;;4.00;71.97;102596.34;5042372;28;11490;-67
2022/12/02 08:17:17;;;;;;;;;16.25;16.25;;;;;3.97;72.00;102602.75;5051012;28;12203;-67
2022/12/02 08:19:44;;;;;;;;;26.75;19.00;;;;;4.00;72.16;102607.84;5051420;28;11501;-67
2022/12/02 08:22:10;;;;;;;;;17.25;17.00;;;;;4.04;72.04;102603.16;5051383;28;11505;-67
2022/12/02 08:24:36;;;;;;;;;21.25;14.00;;;;;4.09;72.00;102606.34;5051011;28;11598;-67
2022/12/02 08:27:03;;;;;;;;;23.75;21.00;;;;;4.10;71.48;102608.91;5046403;28;11565;-67
2022/12/02 08:29:30;;;;;;;;;26.50;22.25;;;;;4.05;72.24;102613.72;5051149;28;12360;-68
2022/12/02 08:31:56;;;;;;;;;25.00;22.75;;;;;4.02;72.71;102615.75;5048748;28;11558;-68
2022/12/02 08:34:23;;;;;;;;;35.00;27.00;;;;;3.96;73.18;102609.88;5051114;28;11588;-68
2022/12/02 08:36:50;;;;;;;;;20.75;20.75;;;;;3.95;73.40;102615.31;5038527;28;11630;-68
2022/12/02 08:39:16;;;;;;;;;31.25;26.50;;;;;3.91;72.87;102620.00;5032172;28;11497;-66
2022/12/02 08:41:43;;;;;;;;;23.75;21.00;;;;;3.86;73.02;102605.31;5050654;28;11560;-67
2022/12/02 08:44:09;;;;;;;;;27.25;24.50;;;;;3.85;74.15;102604.47;5050718;28;11558;-67
2022/12/02 08:46:36;;;;;;;;;28.25;23.75;;;;;3.95;74.25;102605.50;5051119;28;11710;-67
2022/12/02 08:49:05;;;;;;;;;26.00;23.50;;;;;3.97;73.86;102598.28;5050936;28;11715;-66
2022/12/02 08:51:32;;;;;;;;;23.25;21.25;;;;;4.07;73.77;102602.94;5050665;28;11553;-67
2022/12/02 08:53:58;;;;;;;;;27.75;21.25;;;;;4.04;72.94;102595.16;5048140;28;11725;-67
2022/12/02 08:56:25;;;;;;;;;30.50;22.00;;;;;3.97;72.60;102595.63;5030635;28;11588;-68
2022/12/02 08:58:51;;;;;;;;;35.00;30.00;;;;;3.89;72.89;102597.09;5035294;28;11515;-67
2022/12/02 09:01:18;;;;;;;;;26.50;23.75;;;;;3.89;73.32;102608.63;5033431;28;11566;-67
2022/12/02 09:03:44;;;;;;;;;33.75;28.50;;;;;3.94;74.49;102602.97;5050397;28;11619;-68
2022/12/02 09:06:11;;;;;;;;;40.25;28.25;;;;;3.97;73.54;102606.28;5050308;28;11503;-67
2022/12/02 09:08:37;;;;;;;;;24.75;22.50;;;;;4.01;73.89;102595.38;5048216;28;11663;-67
2022/12/02 09:11:04;;;;;;;;;27.25;24.75;;;;;4.00;73.58;102597.19;5050545;28;11554;-68
2022/12/02 09:13:30;;;;;;;;;34.25;28.00;;;;;4.01;73.12;102609.56;5032740;28;11562;-67
2022/12/02 09:15:57;;;;;;;;;30.00;25.75;;;;;3.87;73.28;102601.69;5030383;28;11593;-67
2022/12/02 09:18:24;;;;;;;;;32.50;28.25;;;;;3.90;73.76;102602.31;5030575;28;11505;-67
2022/12/02 09:20:50;;;;;;;;;26.25;25.50;;;;;3.91;73.53;102609.34;5045616;28;12441;-68
2022/12/02 09:23:16;;;;;;;;;38.25;28.25;;;;;3.87;73.93;102605.19;5050569;28;11499;-68
2022/12/02 09:25:43;;;;;;;;;31.25;24.75;;;;;3.87;74.31;102607.84;5050042;28;11597;-67
2022/12/02 09:28:09;;;;;;;;;26.50;26.25;;;;;3.91;74.61;102605.84;5038311;28;11580;-68
2022/12/02 09:30:36;;;;;;;;;47.00;31.00;;;;;3.95;74.51;102613.50;5049251;28;11572;-68
2022/12/02 09:33:02;;;;;;;;;46.50;34.25;;;;;3.90;74.50;102607.66;5050029;28;11590;-68
2022/12/02 09:35:29;;;;;;;;;41.25;30.25;;;;;3.90;74.84;102602.31;5039254;28;11586;-67
2022/12/02 09:37:55;;;;;;;;;39.75;31.25;;;;;3.90;73.81;102623.63;5049854;28;11597;-68
2022/12/02 09:40:22;;;;;;;;;31.75;26.00;;;;;3.80;73.19;102613.72;5049957;28;12288;-67
2022/12/02 09:42:49;;;;;;;;;32.00;28.25;;;;;3.78;73.82;102602.34;5065162;28;11576;-67
2022/12/02 09:45:16;;;;;;;;;32.00;30.00;;;;;3.83;73.63;102609.03;5049623;28;11593;-67
2022/12/02 09:47:43;;;;;;;;;34.50;27.00;;;;;3.87;74.04;102605.19;5049900;28;11590;-68
2022/12/02 09:50:13;;;;;;;;;35.25;32.25;;;;;3.90;73.44;102607.66;5043977;28;11547;-68
2022/12/02 09:52:40;;;;;;;;;37.50;31.50;;;;;3.83;72.28;102610.84;5043587;28;11579;-68
2022/12/02 09:55:13;;;;;;;;;32.75;28.25;;;;;3.74;73.15;102607.00;5042541;28;11693;-68
2022/12/02 09:57:40;;;;;;;;;32.25;28.00;;;;;3.70;73.71;102603.72;5046851;28;11589;-67
2022/12/02 10:00:13;;;;;;;;;28.50;24.25;;;;;3.76;73.07;102605.09;5048977;28;12442;-68
2022/12/02 10:02:46;;;;;;;;;34.00;28.75;;;;;3.78;72.69;102605.84;5040334;28;11562;-68
2022/12/02 10:05:27;;;;;;;;;51.50;35.75;;;;;3.68;73.03;102586.97;5031833;28;11684;-69
2022/12/02 10:07:56;;;;;;;;;43.50;31.25;;;;;3.74;72.76;102584.88;5038183;28;11593;-68
2022/12/02 10:10:34;;;;;;;;;37.50;31.00;;;;;3.70;72.32;102579.75;5049785;28;11596;-68
2022/12/02 10:13:01;;;;;;;;;32.00;30.25;;;;;3.59;72.59;102578.78;5049150;28;11568;-71
2022/12/02 10:15:33;;;;;;;;;38.25;32.00;;;;;3.52;72.10;102586.31;5048966;28;11603;-68
2022/12/02 10:18:08;;;;;;;;;34.00;30.00;;;;;3.44;73.06;102584.22;5042686;28;11631;-68
2022/12/02 10:20:35;;;;;;;;;30.25;27.25;;;;;3.47;73.06;102580.47;5039753;28;11552;-66
2022/12/02 10:23:09;;;;;;;;;36.50;27.50;;;;;3.38;73.53;102595.25;5049407;28;11681;-66
2022/12/02 10:25:37;;;;;;;;;35.75;28.00;;;;;3.39;73.43;102580.16;5052242;28;11644;-68
2022/12/02 10:28:18;;;;;;;;;34.50;27.75;;;;;3.44;73.32;102586.00;5053492;28;11686;-66
2022/12/02 10:30:56;;;;;;;;;35.00;27.50;;;;;3.40;72.92;102579.19;5053317;28;11578;-67
2022/12/02 10:33:25;;;;;;;;;43.25;31.50;;;;;3.39;72.85;102583.66;5053547;28;11603;-67
2022/12/02 10:35:53;;;;;;;;;39.75;34.75;;;;;3.36;73.16;102586.56;5043194;28;11602;-67
2022/12/02 10:38:38;;;;;;;;;30.75;29.25;;;;;3.38;73.04;102573.97;5032748;28;11602;-66
2022/12/02 10:41:18;;;;;;;;;41.50;34.00;;;;;3.32;72.57;102569.09;5047854;28;11704;-68
2022/12/02 10:43:51;;;;;;;;;33.75;26.50;;;;;3.32;72.89;102562.88;5053387;28;11585;-67
2022/12/02 10:46:19;;;;;;;;;38.00;29.50;;;;;3.37;73.42;102571.44;5053186;28;11580;-68
2022/12/02 10:48:46;;;;;;;;;41.00;34.25;;;;;3.44;73.63;102567.38;5054133;28;11624;-68
2022/12/02 10:51:14;;;;;;;;;39.50;29.25;;;;;3.56;73.44;102566.50;5043137;28;11683;-66
2022/12/02 10:53:42;;;;;;;;;34.25;28.75;;;;;3.54;71.57;102557.81;5032910;28;11582;-68
2022/12/02 10:56:18;;;;;;;;;38.00;31.50;;;;;3.42;72.57;102559.50;5047290;28;11556;-68
2022/12/02 10:58:49;;;;;;;;;35.50;27.75;;;;;3.35;72.99;102549.38;5053078;28;11692;-68
2022/12/02 11:01:19;;;;;;;;;33.50;30.00;;;;;3.33;73.03;102548.63;5052801;28;11581;-68
2022/12/02 11:03:47;;;;;;;;;43.75;29.50;;;;;3.37;73.54;102550.13;5052787;28;11553;-68
2022/12/02 11:06:17;;;;;;;;;42.50;32.50;;;;;3.46;73.29;102545.00;5044781;28;11626;-67
2022/12/02 11:08:46;;;;;;;;;43.75;33.75;;;;;3.44;73.20;102546.94;5032641;28;11702;-68
2022/12/02 11:11:15;;;;;;;;;47.75;35.25;;;;;3.34;72.09;102553.84;5047805;28;11694;-67
2022/12/02 11:13:58;;;;;;;;;37.25;30.50;;;;;3.22;73.09;102552.88;5052466;28;11694;-67
2022/12/02 11:16:27;;;;;;;;;34.50;28.25;;;;;3.23;72.78;102545.72;5052150;28;11560;-67
2022/12/02 11:19:05;;;;;;;;;42.00;29.75;;;;;3.26;73.36;102548.19;5052448;28;11733;-67
2022/12/02 11:21:36;;;;;;;;;44.00;32.25;;;;;3.30;73.56;102551.50;5051299;28;11571;-67
2022/12/02 11:24:21;;;;;;;;;37.25;32.75;;;;;3.31;73.16;102556.72;5052063;28;11607;-67
2022/12/02 11:27:01;;;;;;;;;37.00;31.25;;;;;3.40;73.55;102547.22;5051956;28;12152;-67
2022/12/02 11:29:40;;;;;;;;;52.50;34.50;;;;;3.44;73.86;102551.38;5052148;28;11670;-67